sensor_id;sensor_type;location;lat;lon;timestamp;P1;durP1;ratioP1;P2;durP2;ratioP2
18689;SDS011;9782;52.930;15.562;2023-07-16T00:27:06;4.43;;;3.85;;
18689;SDS011;9782;52.930;15.562;2023-07-16T00:29:33;7.70;;;4.00;;
18689;SDS011;9782;52.930;15.562;2023-07-16T00:34:35;5.97;;;3.85;;
18689;SDS011;9782;52.930;15.562;2023-07-16T00:37:06;6.13;;;4.53;;
18689;SDS011;9782;52.930;15.562;2023-07-16T00:42:09;4.78;;;3.90;;
18689;SDS011;9782;52.930;15.562;2023-07-16T00:49:47;7.20;;;4.30;;
18689;SDS011;9782;52.930;15.562;2023-07-16T00:54:52;4.68;;;4.28;;
18689;SDS011;9782;52.930;15.562;2023-07-16T00:57:32;4.82;;;4.32;;
18689;SDS011;9782;52.930;15.562;2023-07-16T01:00:11;7.32;;;4.60;;
18689;SDS011;9782;52.930;15.562;2023-07-16T01:02:38;5.45;;;4.32;;
18689;SDS011;9782;52.930;15.562;2023-07-16T01:05:06;4.75;;;4.32;;
18689;SDS011;9782;52.930;15.562;2023-07-16T01:07:33;7.10;;;4.78;;
18689;SDS011;9782;52.930;15.562;2023-07-16T01:10:02;6.60;;;4.63;;
18689;SDS011;9782;52.930;15.562;2023-07-16T01:12:30;6.38;;;4.35;;
18689;SDS011;9782;52.930;15.562;2023-07-16T01:17:35;5.38;;;4.45;;
18689;SDS011;9782;52.930;15.562;2023-07-16T01:20:01;5.30;;;4.45;;
18689;SDS011;9782;52.930;15.562;2023-07-16T03:56:49;3.40;;;2.92;;
18689;SDS011;9782;52.930;15.562;2023-07-16T03:59:16;4.07;;;2.90;;
18689;SDS011;9782;52.930;15.562;2023-07-16T04:01:43;3.92;;;3.40;;
18689;SDS011;9782;52.930;15.562;2023-07-16T04:04:10;6.18;;;3.15;;
18689;SDS011;9782;52.930;15.562;2023-07-16T04:06:37;3.92;;;2.95;;
18689;SDS011;9782;52.930;15.562;2023-07-16T04:09:06;3.50;;;3.20;;
18689;SDS011;9782;52.930;15.562;2023-07-16T04:14:19;4.53;;;2.92;;
18689;SDS011;9782;52.930;15.562;2023-07-16T06:10:06;18.83;;;13.43;;
18689;SDS011;9782;52.930;15.562;2023-07-16T06:12:34;15.38;;;10.93;;
18689;SDS011;9782;52.930;15.562;2023-07-16T06:15:01;12.00;;;8.73;;
18689;SDS011;9782;52.930;15.562;2023-07-16T06:17:28;5.47;;;4.15;;
18689;SDS011;9782;52.930;15.562;2023-07-16T06:19:55;4.15;;;3.70;;
18689;SDS011;9782;52.930;15.562;2023-07-16T06:22:22;4.60;;;3.50;;
18689;SDS011;9782;52.930;15.562;2023-07-16T06:24:49;5.55;;;3.78;;
18689;SDS011;9782;52.930;15.562;2023-07-16T06:27:28;7.50;;;5.07;;
18689;SDS011;9782;52.930;15.562;2023-07-16T06:46:35;23.05;;;12.05;;
18689;SDS011;9782;52.930;15.562;2023-07-16T06:54:34;8.55;;;6.30;;
18689;SDS011;9782;52.930;15.562;2023-07-16T06:57:01;8.85;;;5.60;;
18689;SDS011;9782;52.930;15.562;2023-07-16T06:59:30;5.53;;;4.53;;
18689;SDS011;9782;52.930;15.562;2023-07-16T07:29:26;2.67;;;2.47;;
18689;SDS011;9782;52.930;15.562;2023-07-16T07:31:53;4.40;;;2.53;;
18689;SDS011;9782;52.930;15.562;2023-07-16T07:34:20;3.92;;;2.50;;
18689;SDS011;9782;52.930;15.562;2023-07-16T07:36:46;3.03;;;2.72;;
18689;SDS011;9782;52.930;15.562;2023-07-16T07:39:13;3.00;;;2.70;;
18689;SDS011;9782;52.930;15.562;2023-07-16T07:41:41;5.78;;;3.30;;
18689;SDS011;9782;52.930;15.562;2023-07-16T07:44:08;4.43;;;3.20;;
18689;SDS011;9782;52.930;15.562;2023-07-16T07:46:37;4.05;;;3.17;;
18689;SDS011;9782;52.930;15.562;2023-07-16T07:49:03;3.75;;;3.35;;
18689;SDS011;9782;52.930;15.562;2023-07-16T07:51:30;3.85;;;3.30;;
18689;SDS011;9782;52.930;15.562;2023-07-16T07:53:57;3.85;;;3.35;;
18689;SDS011;9782;52.930;15.562;2023-07-16T07:56:24;4.53;;;3.10;;
18689;SDS011;9782;52.930;15.562;2023-07-16T07:58:51;3.10;;;2.80;;
18689;SDS011;9782;52.930;15.562;2023-07-16T08:01:18;3.70;;;2.92;;
18689;SDS011;9782;52.930;15.562;2023-07-16T08:03:46;4.10;;;2.80;;
18689;SDS011;9782;52.930;15.562;2023-07-16T08:06:13;3.38;;;2.78;;
18689;SDS011;9782;52.930;15.562;2023-07-16T08:08:40;4.60;;;3.00;;
18689;SDS011;9782;52.930;15.562;2023-07-16T08:11:07;3.58;;;2.88;;
18689;SDS011;9782;52.930;15.562;2023-07-16T08:13:34;3.50;;;2.53;;
18689;SDS011;9782;52.930;15.562;2023-07-16T08:16:01;3.67;;;2.72;;
18689;SDS011;9782;52.930;15.562;2023-07-16T08:18:28;3.97;;;2.58;;
18689;SDS011;9782;52.930;15.562;2023-07-16T08:20:56;3.13;;;2.60;;
18689;SDS011;9782;52.930;15.562;2023-07-16T08:23:23;2.60;;;2.40;;
18689;SDS011;9782;52.930;15.562;2023-07-16T08:25:50;3.70;;;2.70;;
18689;SDS011;9782;52.930;15.562;2023-07-16T08:28:18;5.10;;;2.90;;
18689;SDS011;9782;52.930;15.562;2023-07-16T08:30:46;6.88;;;2.80;;
18689;SDS011;9782;52.930;15.562;2023-07-16T08:33:13;4.10;;;3.00;;
18689;SDS011;9782;52.930;15.562;2023-07-16T08:35:41;3.78;;;2.92;;
18689;SDS011;9782;52.930;15.562;2023-07-16T08:38:09;3.55;;;2.80;;
18689;SDS011;9782;52.930;15.562;2023-07-16T08:40:36;5.00;;;2.80;;
18689;SDS011;9782;52.930;15.562;2023-07-16T08:43:03;4.88;;;3.10;;
18689;SDS011;9782;52.930;15.562;2023-07-16T08:45:32;6.65;;;3.42;;
18689;SDS011;9782;52.930;15.562;2023-07-16T08:48:06;5.75;;;3.35;;
18689;SDS011;9782;52.930;15.562;2023-07-16T08:50:33;6.13;;;3.63;;
18689;SDS011;9782;52.930;15.562;2023-07-16T08:53:01;3.60;;;3.30;;
18689;SDS011;9782;52.930;15.562;2023-07-16T08:55:31;4.22;;;3.75;;
18689;SDS011;9782;52.930;15.562;2023-07-16T08:57:58;5.05;;;3.95;;
18689;SDS011;9782;52.930;15.562;2023-07-16T09:00:25;4.63;;;4.20;;
18689;SDS011;9782;52.930;15.562;2023-07-16T09:02:53;4.35;;;3.95;;
18689;SDS011;9782;52.930;15.562;2023-07-16T09:05:20;5.45;;;3.90;;
18689;SDS011;9782;52.930;15.562;2023-07-16T09:07:48;4.25;;;3.85;;
18689;SDS011;9782;52.930;15.562;2023-07-16T09:10:15;5.65;;;4.10;;
18689;SDS011;9782;52.930;15.562;2023-07-16T09:12:45;5.65;;;3.75;;
18689;SDS011;9782;52.930;15.562;2023-07-16T09:15:17;5.55;;;4.20;;
18689;SDS011;9782;52.930;15.562;2023-07-16T09:17:46;4.30;;;3.95;;
18689;SDS011;9782;52.930;15.562;2023-07-16T09:20:14;4.63;;;4.22;;
18689;SDS011;9782;52.930;15.562;2023-07-16T09:22:42;4.47;;;4.07;;
18689;SDS011;9782;52.930;15.562;2023-07-16T09:25:09;5.53;;;4.28;;
18689;SDS011;9782;52.930;15.562;2023-07-16T09:27:36;4.50;;;4.07;;
18689;SDS011;9782;52.930;15.562;2023-07-16T09:30:05;5.13;;;3.70;;
18689;SDS011;9782;52.930;15.562;2023-07-16T09:32:33;4.35;;;3.97;;
18689;SDS011;9782;52.930;15.562;2023-07-16T09:35:00;12.57;;;6.63;;
18689;SDS011;9782;52.930;15.562;2023-07-16T09:37:27;8.02;;;6.70;;
18689;SDS011;9782;52.930;15.562;2023-07-16T09:39:54;7.03;;;5.60;;
18689;SDS011;9782;52.930;15.562;2023-07-16T09:42:21;5.20;;;3.60;;
18689;SDS011;9782;52.930;15.562;2023-07-16T09:44:49;4.20;;;3.80;;
18689;SDS011;9782;52.930;15.562;2023-07-16T09:47:21;4.07;;;3.78;;
18689;SDS011;9782;52.930;15.562;2023-07-16T09:49:48;4.30;;;3.90;;
18689;SDS011;9782;52.930;15.562;2023-07-16T09:52:15;4.47;;;3.80;;
18689;SDS011;9782;52.930;15.562;2023-07-16T09:54:42;4.75;;;3.80;;
18689;SDS011;9782;52.930;15.562;2023-07-16T09:57:11;5.13;;;4.38;;
18689;SDS011;9782;52.930;15.562;2023-07-16T09:59:40;5.53;;;4.35;;
18689;SDS011;9782;52.930;15.562;2023-07-16T10:02:07;4.50;;;4.10;;
18689;SDS011;9782;52.930;15.562;2023-07-16T10:04:38;4.25;;;3.80;;
18689;SDS011;9782;52.930;15.562;2023-07-16T10:07:05;3.30;;;3.00;;
18689;SDS011;9782;52.930;15.562;2023-07-16T10:09:37;4.68;;;3.53;;
18689;SDS011;9782;52.930;15.562;2023-07-16T10:12:15;3.40;;;3.10;;
18689;SDS011;9782;52.930;15.562;2023-07-16T10:14:43;3.30;;;3.10;;
18689;SDS011;9782;52.930;15.562;2023-07-16T10:17:12;3.40;;;3.10;;
18689;SDS011;9782;52.930;15.562;2023-07-16T10:19:48;4.43;;;3.40;;
18689;SDS011;9782;52.930;15.562;2023-07-16T10:22:17;4.18;;;3.20;;
18689;SDS011;9782;52.930;15.562;2023-07-16T10:24:44;4.05;;;3.15;;
18689;SDS011;9782;52.930;15.562;2023-07-16T10:27:26;3.95;;;3.45;;
18689;SDS011;9782;52.930;15.562;2023-07-16T10:29:54;3.80;;;2.88;;
18689;SDS011;9782;52.930;15.562;2023-07-16T10:32:25;3.30;;;3.00;;
18689;SDS011;9782;52.930;15.562;2023-07-16T10:34:55;3.17;;;2.78;;
18689;SDS011;9782;52.930;15.562;2023-07-16T10:37:22;3.92;;;3.03;;
18689;SDS011;9782;52.930;15.562;2023-07-16T10:39:51;4.55;;;2.80;;
18689;SDS011;9782;52.930;15.562;2023-07-16T10:42:18;4.40;;;4.00;;
18689;SDS011;9782;52.930;15.562;2023-07-16T10:44:48;4.22;;;3.47;;
18689;SDS011;9782;52.930;15.562;2023-07-16T10:47:23;3.47;;;3.17;;
18689;SDS011;9782;52.930;15.562;2023-07-16T10:49:51;4.13;;;2.63;;
18689;SDS011;9782;52.930;15.562;2023-07-16T10:52:20;3.20;;;2.90;;
18689;SDS011;9782;52.930;15.562;2023-07-16T10:54:48;5.05;;;2.97;;
18689;SDS011;9782;52.930;15.562;2023-07-16T10:57:16;3.08;;;2.75;;
18689;SDS011;9782;52.930;15.562;2023-07-16T10:59:44;3.63;;;3.00;;
18689;SDS011;9782;52.930;15.562;2023-07-16T11:02:13;3.25;;;2.95;;
18689;SDS011;9782;52.930;15.562;2023-07-16T11:04:42;3.20;;;2.90;;
18689;SDS011;9782;52.930;15.562;2023-07-16T11:07:09;3.85;;;2.95;;
18689;SDS011;9782;52.930;15.562;2023-07-16T11:09:42;3.08;;;2.70;;
18689;SDS011;9782;52.930;15.562;2023-07-16T11:12:11;6.13;;;3.13;;
18689;SDS011;9782;52.930;15.562;2023-07-16T11:14:39;3.20;;;2.80;;
18689;SDS011;9782;52.930;15.562;2023-07-16T11:17:09;4.45;;;2.85;;
18689;SDS011;9782;52.930;15.562;2023-07-16T11:19:36;3.35;;;2.83;;
18689;SDS011;9782;52.930;15.562;2023-07-16T11:22:04;3.13;;;2.63;;
18689;SDS011;9782;52.930;15.562;2023-07-16T11:24:37;3.03;;;2.70;;
18689;SDS011;9782;52.930;15.562;2023-07-16T11:27:06;3.78;;;2.97;;
18689;SDS011;9782;52.930;15.562;2023-07-16T11:29:39;3.72;;;2.67;;
18689;SDS011;9782;52.930;15.562;2023-07-16T11:32:07;3.35;;;2.75;;
18689;SDS011;9782;52.930;15.562;2023-07-16T11:34:34;3.05;;;2.80;;
18689;SDS011;9782;52.930;15.562;2023-07-16T11:37:07;2.83;;;2.58;;
18689;SDS011;9782;52.930;15.562;2023-07-16T11:39:35;3.10;;;2.25;;
18689;SDS011;9782;52.930;15.562;2023-07-16T11:42:02;2.90;;;2.28;;
18689;SDS011;9782;52.930;15.562;2023-07-16T11:44:34;3.58;;;2.30;;
18689;SDS011;9782;52.930;15.562;2023-07-16T11:47:02;2.30;;;2.10;;
18689;SDS011;9782;52.930;15.562;2023-07-16T11:49:29;2.63;;;2.42;;
18689;SDS011;9782;52.930;15.562;2023-07-16T11:51:56;4.07;;;2.30;;
18689;SDS011;9782;52.930;15.562;2023-07-16T11:54:24;5.05;;;2.58;;
18689;SDS011;9782;52.930;15.562;2023-07-16T11:56:51;5.65;;;5.15;;
18689;SDS011;9782;52.930;15.562;2023-07-16T11:59:18;4.78;;;4.10;;
18689;SDS011;9782;52.930;15.562;2023-07-16T12:01:47;3.03;;;2.22;;
18689;SDS011;9782;52.930;15.562;2023-07-16T12:04:15;2.83;;;1.95;;
18689;SDS011;9782;52.930;15.562;2023-07-16T12:06:42;3.78;;;2.20;;
18689;SDS011;9782;52.930;15.562;2023-07-16T12:09:09;4.13;;;2.17;;
18689;SDS011;9782;52.930;15.562;2023-07-16T12:11:36;3.03;;;2.50;;
18689;SDS011;9782;52.930;15.562;2023-07-16T12:14:04;2.67;;;2.10;;
18689;SDS011;9782;52.930;15.562;2023-07-16T12:16:30;4.25;;;2.13;;
18689;SDS011;9782;52.930;15.562;2023-07-16T12:18:58;2.65;;;2.10;;
18689;SDS011;9782;52.930;15.562;2023-07-16T12:21:25;2.70;;;2.10;;
18689;SDS011;9782;52.930;15.562;2023-07-16T12:23:52;2.53;;;2.22;;
18689;SDS011;9782;52.930;15.562;2023-07-16T12:26:19;3.15;;;2.47;;
18689;SDS011;9782;52.930;15.562;2023-07-16T12:28:46;4.35;;;2.30;;
18689;SDS011;9782;52.930;15.562;2023-07-16T12:31:13;1.80;;;1.70;;
18689;SDS011;9782;52.930;15.562;2023-07-16T12:33:40;2.05;;;1.80;;
18689;SDS011;9782;52.930;15.562;2023-07-16T12:36:08;2.47;;;2.10;;
18689;SDS011;9782;52.930;15.562;2023-07-16T12:38:35;2.70;;;2.40;;
18689;SDS011;9782;52.930;15.562;2023-07-16T12:41:02;3.20;;;2.20;;
18689;SDS011;9782;52.930;15.562;2023-07-16T12:43:29;2.75;;;2.40;;
18689;SDS011;9782;52.930;15.562;2023-07-16T12:45:58;2.17;;;1.98;;
18689;SDS011;9782;52.930;15.562;2023-07-16T12:48:26;3.50;;;2.20;;
18689;SDS011;9782;52.930;15.562;2023-07-16T12:50:53;3.10;;;2.22;;
18689;SDS011;9782;52.930;15.562;2023-07-16T12:53:21;2.70;;;2.40;;
18689;SDS011;9782;52.930;15.562;2023-07-16T12:55:48;3.40;;;2.30;;
18689;SDS011;9782;52.930;15.562;2023-07-16T12:58:15;6.03;;;2.22;;
18689;SDS011;9782;52.930;15.562;2023-07-16T13:00:42;2.97;;;2.05;;
18689;SDS011;9782;52.930;15.562;2023-07-16T13:03:08;4.35;;;2.35;;
18689;SDS011;9782;52.930;15.562;2023-07-16T13:05:36;5.05;;;3.03;;
18689;SDS011;9782;52.930;15.562;2023-07-16T13:08:03;2.83;;;2.28;;
18689;SDS011;9782;52.930;15.562;2023-07-16T13:10:32;2.95;;;2.30;;
18689;SDS011;9782;52.930;15.562;2023-07-16T13:12:58;3.17;;;2.40;;
18689;SDS011;9782;52.930;15.562;2023-07-16T13:15:25;3.53;;;2.40;;
18689;SDS011;9782;52.930;15.562;2023-07-16T13:17:52;3.15;;;2.45;;
18689;SDS011;9782;52.930;15.562;2023-07-16T13:20:20;2.83;;;2.40;;
18689;SDS011;9782;52.930;15.562;2023-07-16T13:22:48;2.65;;;2.33;;
18689;SDS011;9782;52.930;15.562;2023-07-16T13:25:15;2.30;;;2.10;;
18689;SDS011;9782;52.930;15.562;2023-07-16T13:27:44;2.30;;;2.10;;
18689;SDS011;9782;52.930;15.562;2023-07-16T13:30:11;3.90;;;2.28;;
18689;SDS011;9782;52.930;15.562;2023-07-16T13:32:38;3.28;;;2.30;;
18689;SDS011;9782;52.930;15.562;2023-07-16T13:35:05;2.53;;;1.88;;
18689;SDS011;9782;52.930;15.562;2023-07-16T13:37:32;1.83;;;1.73;;
18689;SDS011;9782;52.930;15.562;2023-07-16T13:39:59;2.58;;;2.03;;
18689;SDS011;9782;52.930;15.562;2023-07-16T13:42:26;2.60;;;2.10;;
18689;SDS011;9782;52.930;15.562;2023-07-16T13:44:54;3.80;;;2.00;;
18689;SDS011;9782;52.930;15.562;2023-07-16T13:47:21;2.72;;;2.17;;
18689;SDS011;9782;52.930;15.562;2023-07-16T13:49:48;2.42;;;1.75;;
18689;SDS011;9782;52.930;15.562;2023-07-16T13:52:15;3.15;;;2.10;;
18689;SDS011;9782;52.930;15.562;2023-07-16T13:54:42;3.50;;;2.05;;
18689;SDS011;9782;52.930;15.562;2023-07-16T13:57:09;2.28;;;2.08;;
18689;SDS011;9782;52.930;15.562;2023-07-16T13:59:36;5.25;;;2.35;;
18689;SDS011;9782;52.930;15.562;2023-07-16T14:02:04;2.50;;;2.10;;
18689;SDS011;9782;52.930;15.562;2023-07-16T14:04:31;4.35;;;2.13;;
18689;SDS011;9782;52.930;15.562;2023-07-16T14:06:58;2.47;;;2.10;;
18689;SDS011;9782;52.930;15.562;2023-07-16T14:09:25;5.00;;;2.00;;
18689;SDS011;9782;52.930;15.562;2023-07-16T14:11:52;3.13;;;2.00;;
18689;SDS011;9782;52.930;15.562;2023-07-16T14:14:20;3.55;;;1.90;;
18689;SDS011;9782;52.930;15.562;2023-07-16T14:16:47;2.22;;;1.80;;
18689;SDS011;9782;52.930;15.562;2023-07-16T14:19:16;2.63;;;1.98;;
18689;SDS011;9782;52.930;15.562;2023-07-16T14:21:42;2.58;;;1.88;;
18689;SDS011;9782;52.930;15.562;2023-07-16T14:24:09;2.47;;;2.17;;
18689;SDS011;9782;52.930;15.562;2023-07-16T14:26:36;2.83;;;1.80;;
18689;SDS011;9782;52.930;15.562;2023-07-16T14:29:03;2.47;;;2.00;;
18689;SDS011;9782;52.930;15.562;2023-07-16T14:31:30;3.35;;;2.20;;
18689;SDS011;9782;52.930;15.562;2023-07-16T14:33:57;3.35;;;1.88;;
18689;SDS011;9782;52.930;15.562;2023-07-16T14:36:26;3.17;;;1.77;;
18689;SDS011;9782;52.930;15.562;2023-07-16T14:38:53;2.17;;;1.70;;
18689;SDS011;9782;52.930;15.562;2023-07-16T14:41:20;4.50;;;1.95;;
18689;SDS011;9782;52.930;15.562;2023-07-16T14:43:47;2.20;;;2.00;;
18689;SDS011;9782;52.930;15.562;2023-07-16T14:46:14;2.70;;;1.90;;
18689;SDS011;9782;52.930;15.562;2023-07-16T14:48:42;3.25;;;1.85;;
18689;SDS011;9782;52.930;15.562;2023-07-16T14:51:09;4.28;;;1.80;;
18689;SDS011;9782;52.930;15.562;2023-07-16T14:53:37;2.13;;;1.90;;
18689;SDS011;9782;52.930;15.562;2023-07-16T14:56:04;2.55;;;1.70;;
18689;SDS011;9782;52.930;15.562;2023-07-16T14:58:32;3.25;;;1.95;;
18689;SDS011;9782;52.930;15.562;2023-07-16T15:01:00;3.65;;;2.05;;
18689;SDS011;9782;52.930;15.562;2023-07-16T15:03:28;2.42;;;1.73;;
18689;SDS011;9782;52.930;15.562;2023-07-16T15:05:56;2.45;;;1.90;;
18689;SDS011;9782;52.930;15.562;2023-07-16T15:08:23;2.10;;;1.90;;
18689;SDS011;9782;52.930;15.562;2023-07-16T15:10:53;4.30;;;2.00;;
18689;SDS011;9782;52.930;15.562;2023-07-16T15:13:21;5.25;;;2.00;;
18689;SDS011;9782;52.930;15.562;2023-07-16T15:15:50;4.13;;;2.45;;
18689;SDS011;9782;52.930;15.562;2023-07-16T15:18:17;6.18;;;2.30;;
18689;SDS011;9782;52.930;15.562;2023-07-16T15:20:45;4.65;;;2.20;;
18689;SDS011;9782;52.930;15.562;2023-07-16T15:23:12;2.17;;;1.95;;
18689;SDS011;9782;52.930;15.562;2023-07-16T15:25:40;3.13;;;2.05;;
18689;SDS011;9782;52.930;15.562;2023-07-16T15:28:10;2.10;;;1.83;;
18689;SDS011;9782;52.930;15.562;2023-07-16T15:30:37;4.35;;;1.92;;
18689;SDS011;9782;52.930;15.562;2023-07-16T15:33:06;2.00;;;1.80;;
18689;SDS011;9782;52.930;15.562;2023-07-16T15:35:33;2.65;;;1.90;;
18689;SDS011;9782;52.930;15.562;2023-07-16T15:38:01;3.95;;;2.10;;
18689;SDS011;9782;52.930;15.562;2023-07-16T15:40:31;2.65;;;2.05;;
18689;SDS011;9782;52.930;15.562;2023-07-16T15:42:59;2.75;;;1.92;;
18689;SDS011;9782;52.930;15.562;2023-07-16T15:45:27;4.57;;;2.30;;
18689;SDS011;9782;52.930;15.562;2023-07-16T15:47:54;3.22;;;1.77;;
18689;SDS011;9782;52.930;15.562;2023-07-16T15:50:24;3.95;;;1.83;;
18689;SDS011;9782;52.930;15.562;2023-07-16T15:52:55;3.58;;;1.95;;
18689;SDS011;9782;52.930;15.562;2023-07-16T15:55:22;3.17;;;1.73;;
18689;SDS011;9782;52.930;15.562;2023-07-16T15:57:49;3.25;;;2.10;;
18689;SDS011;9782;52.930;15.562;2023-07-16T16:00:17;4.20;;;2.17;;
18689;SDS011;9782;52.930;15.562;2023-07-16T16:02:48;3.53;;;2.10;;
18689;SDS011;9782;52.930;15.562;2023-07-16T16:05:16;2.72;;;1.95;;
18689;SDS011;9782;52.930;15.562;2023-07-16T16:07:48;3.95;;;2.13;;
18689;SDS011;9782;52.930;15.562;2023-07-16T16:10:43;3.72;;;2.30;;
18689;SDS011;9782;52.930;15.562;2023-07-16T16:13:12;3.67;;;2.00;;
18689;SDS011;9782;52.930;15.562;2023-07-16T16:15:39;4.18;;;1.77;;
18689;SDS011;9782;52.930;15.562;2023-07-16T16:18:08;5.95;;;2.17;;
18689;SDS011;9782;52.930;15.562;2023-07-16T16:20:36;2.70;;;1.90;;
18689;SDS011;9782;52.930;15.562;2023-07-16T16:23:03;3.08;;;1.90;;
18689;SDS011;9782;52.930;15.562;2023-07-16T16:25:33;4.22;;;2.10;;
18689;SDS011;9782;52.930;15.562;2023-07-16T16:28:01;3.70;;;2.10;;
18689;SDS011;9782;52.930;15.562;2023-07-16T16:30:30;4.45;;;2.30;;
18689;SDS011;9782;52.930;15.562;2023-07-16T16:32:57;5.57;;;2.30;;
18689;SDS011;9782;52.930;15.562;2023-07-16T16:35:32;3.53;;;1.80;;
18689;SDS011;9782;52.930;15.562;2023-07-16T16:37:59;2.63;;;1.60;;
18689;SDS011;9782;52.930;15.562;2023-07-16T16:40:26;5.32;;;1.75;;
18689;SDS011;9782;52.930;15.562;2023-07-16T16:42:53;2.85;;;1.90;;
18689;SDS011;9782;52.930;15.562;2023-07-16T16:45:20;3.95;;;1.80;;
18689;SDS011;9782;52.930;15.562;2023-07-16T16:47:47;4.72;;;1.80;;
18689;SDS011;9782;52.930;15.562;2023-07-16T16:50:14;2.67;;;1.83;;
18689;SDS011;9782;52.930;15.562;2023-07-16T16:52:43;4.20;;;1.77;;
18689;SDS011;9782;52.930;15.562;2023-07-16T16:55:10;4.82;;;1.70;;
18689;SDS011;9782;52.930;15.562;2023-07-16T16:57:37;3.67;;;1.67;;
18689;SDS011;9782;52.930;15.562;2023-07-16T17:00:04;3.30;;;1.85;;
18689;SDS011;9782;52.930;15.562;2023-07-16T17:02:36;2.72;;;1.85;;
18689;SDS011;9782;52.930;15.562;2023-07-16T17:05:03;3.40;;;1.83;;
18689;SDS011;9782;52.930;15.562;2023-07-16T17:07:30;5.43;;;2.00;;
18689;SDS011;9782;52.930;15.562;2023-07-16T17:09:59;3.72;;;1.80;;
18689;SDS011;9782;52.930;15.562;2023-07-16T17:12:26;4.65;;;1.80;;
18689;SDS011;9782;52.930;15.562;2023-07-16T17:14:52;4.03;;;2.00;;
18689;SDS011;9782;52.930;15.562;2023-07-16T17:17:20;3.42;;;1.83;;
18689;SDS011;9782;52.930;15.562;2023-07-16T17:19:48;3.13;;;1.70;;
18689;SDS011;9782;52.930;15.562;2023-07-16T17:22:19;4.68;;;1.67;;
18689;SDS011;9782;52.930;15.562;2023-07-16T17:24:46;4.70;;;1.90;;
18689;SDS011;9782;52.930;15.562;2023-07-16T17:27:16;4.10;;;1.90;;
18689;SDS011;9782;52.930;15.562;2023-07-16T17:29:43;2.33;;;1.67;;
18689;SDS011;9782;52.930;15.562;2023-07-16T17:32:10;2.47;;;1.70;;
18689;SDS011;9782;52.930;15.562;2023-07-16T17:34:37;3.22;;;1.70;;
18689;SDS011;9782;52.930;15.562;2023-07-16T17:37:06;1.85;;;1.52;;
18689;SDS011;9782;52.930;15.562;2023-07-16T17:39:33;6.13;;;1.90;;
18689;SDS011;9782;52.930;15.562;2023-07-16T17:42:00;2.40;;;1.83;;
18689;SDS011;9782;52.930;15.562;2023-07-16T17:44:29;2.10;;;1.60;;
18689;SDS011;9782;52.930;15.562;2023-07-16T17:46:56;2.17;;;1.90;;
18689;SDS011;9782;52.930;15.562;2023-07-16T17:49:23;2.25;;;1.88;;
18689;SDS011;9782;52.930;15.562;2023-07-16T17:51:50;3.17;;;1.85;;
18689;SDS011;9782;52.930;15.562;2023-07-16T17:54:17;5.57;;;1.65;;
18689;SDS011;9782;52.930;15.562;2023-07-16T17:56:44;2.85;;;1.83;;
18689;SDS011;9782;52.930;15.562;2023-07-16T17:59:11;3.58;;;1.85;;
18689;SDS011;9782;52.930;15.562;2023-07-16T18:01:41;3.05;;;1.60;;
18689;SDS011;9782;52.930;15.562;2023-07-16T18:04:08;3.67;;;1.65;;
18689;SDS011;9782;52.930;15.562;2023-07-16T18:06:35;2.22;;;1.45;;
18689;SDS011;9782;52.930;15.562;2023-07-16T18:09:01;2.42;;;1.80;;
18689;SDS011;9782;52.930;15.562;2023-07-16T18:11:30;3.03;;;1.60;;
18689;SDS011;9782;52.930;15.562;2023-07-16T18:13:57;2.80;;;1.90;;
18689;SDS011;9782;52.930;15.562;2023-07-16T18:16:24;2.05;;;1.73;;
18689;SDS011;9782;52.930;15.562;2023-07-16T18:18:53;2.38;;;1.60;;
18689;SDS011;9782;52.930;15.562;2023-07-16T18:21:19;2.30;;;1.65;;
18689;SDS011;9782;52.930;15.562;2023-07-16T18:23:46;5.10;;;1.80;;
18689;SDS011;9782;52.930;15.562;2023-07-16T18:26:13;2.67;;;1.70;;
18689;SDS011;9782;52.930;15.562;2023-07-16T18:28:40;3.53;;;2.00;;
18689;SDS011;9782;52.930;15.562;2023-07-16T18:31:07;2.85;;;1.80;;
18689;SDS011;9782;52.930;15.562;2023-07-16T18:33:34;2.92;;;1.73;;
18689;SDS011;9782;52.930;15.562;2023-07-16T18:36:02;3.75;;;1.60;;
18689;SDS011;9782;52.930;15.562;2023-07-16T18:38:31;2.53;;;1.70;;
18689;SDS011;9782;52.930;15.562;2023-07-16T18:40:58;2.85;;;2.00;;
18689;SDS011;9782;52.930;15.562;2023-07-16T18:43:25;2.67;;;1.77;;
18689;SDS011;9782;52.930;15.562;2023-07-16T18:45:52;4.90;;;1.90;;
18689;SDS011;9782;52.930;15.562;2023-07-16T18:48:19;4.43;;;1.70;;
18689;SDS011;9782;52.930;15.562;2023-07-16T18:50:46;2.60;;;1.33;;
18689;SDS011;9782;52.930;15.562;2023-07-16T18:53:15;3.53;;;1.70;;
18689;SDS011;9782;52.930;15.562;2023-07-16T18:55:42;5.25;;;1.85;;
18689;SDS011;9782;52.930;15.562;2023-07-16T18:58:09;4.65;;;1.75;;
18689;SDS011;9782;52.930;15.562;2023-07-16T19:00:36;2.25;;;1.58;;
18689;SDS011;9782;52.930;15.562;2023-07-16T19:03:03;2.97;;;1.73;;
18689;SDS011;9782;52.930;15.562;2023-07-16T19:05:29;4.13;;;1.92;;
18689;SDS011;9782;52.930;15.562;2023-07-16T19:07:56;4.38;;;1.77;;
18689;SDS011;9782;52.930;15.562;2023-07-16T19:10:25;3.70;;;2.05;;
18689;SDS011;9782;52.930;15.562;2023-07-16T19:12:52;5.50;;;1.92;;
18689;SDS011;9782;52.930;15.562;2023-07-16T19:15:19;2.65;;;1.80;;
18689;SDS011;9782;52.930;15.562;2023-07-16T19:17:45;5.40;;;1.95;;
18689;SDS011;9782;52.930;15.562;2023-07-16T19:20:12;4.82;;;2.30;;
18689;SDS011;9782;52.930;15.562;2023-07-16T19:22:39;5.55;;;1.90;;
18689;SDS011;9782;52.930;15.562;2023-07-16T19:25:06;2.45;;;1.70;;
18689;SDS011;9782;52.930;15.562;2023-07-16T19:27:35;4.97;;;2.00;;
18689;SDS011;9782;52.930;15.562;2023-07-16T19:30:02;6.65;;;2.25;;
18689;SDS011;9782;52.930;15.562;2023-07-16T19:32:30;6.95;;;2.42;;
18689;SDS011;9782;52.930;15.562;2023-07-16T19:34:57;4.35;;;2.50;;
18689;SDS011;9782;52.930;15.562;2023-07-16T19:37:24;4.18;;;2.10;;
18689;SDS011;9782;52.930;15.562;2023-07-16T19:39:51;3.45;;;1.88;;
18689;SDS011;9782;52.930;15.562;2023-07-16T19:42:20;4.57;;;2.50;;
18689;SDS011;9782;52.930;15.562;2023-07-16T19:44:48;3.10;;;2.50;;
18689;SDS011;9782;52.930;15.562;2023-07-16T19:47:15;5.80;;;2.75;;
18689;SDS011;9782;52.930;15.562;2023-07-16T19:49:42;4.70;;;2.72;;
18689;SDS011;9782;52.930;15.562;2023-07-16T19:52:09;4.03;;;2.90;;
18689;SDS011;9782;52.930;15.562;2023-07-16T19:54:36;8.60;;;3.35;;
18689;SDS011;9782;52.930;15.562;2023-07-16T19:57:03;10.23;;;4.15;;
18689;SDS011;9782;52.930;15.562;2023-07-16T19:59:30;7.13;;;4.85;;
18689;SDS011;9782;52.930;15.562;2023-07-16T20:01:59;5.43;;;3.50;;
18689;SDS011;9782;52.930;15.562;2023-07-16T20:04:26;4.97;;;2.67;;
18689;SDS011;9782;52.930;15.562;2023-07-16T20:06:53;7.75;;;2.30;;
18689;SDS011;9782;52.930;15.562;2023-07-16T20:09:20;6.93;;;3.90;;
18689;SDS011;9782;52.930;15.562;2023-07-16T20:11:50;8.00;;;4.78;;
18689;SDS011;9782;52.930;15.562;2023-07-16T20:14:17;6.68;;;5.35;;
18689;SDS011;9782;52.930;15.562;2023-07-16T20:16:44;7.13;;;5.30;;
18689;SDS011;9782;52.930;15.562;2023-07-16T20:19:12;9.65;;;5.00;;
18689;SDS011;9782;52.930;15.562;2023-07-16T20:21:39;6.82;;;5.15;;
18689;SDS011;9782;52.930;15.562;2023-07-16T20:24:06;7.25;;;5.20;;
18689;SDS011;9782;52.930;15.562;2023-07-16T20:26:34;5.40;;;4.22;;
18689;SDS011;9782;52.930;15.562;2023-07-16T20:29:01;5.85;;;4.63;;
18689;SDS011;9782;52.930;15.562;2023-07-16T20:31:31;6.45;;;5.05;;
18689;SDS011;9782;52.930;15.562;2023-07-16T20:33:58;6.03;;;4.80;;
18689;SDS011;9782;52.930;15.562;2023-07-16T20:36:26;10.38;;;6.13;;
18689;SDS011;9782;52.930;15.562;2023-07-16T20:38:53;9.82;;;5.32;;
18689;SDS011;9782;52.930;15.562;2023-07-16T20:41:20;8.98;;;5.15;;
18689;SDS011;9782;52.930;15.562;2023-07-16T20:43:47;9.65;;;5.25;;
18689;SDS011;9782;52.930;15.562;2023-07-16T20:46:14;7.40;;;4.93;;
18689;SDS011;9782;52.930;15.562;2023-07-16T20:48:41;6.10;;;4.30;;
18689;SDS011;9782;52.930;15.562;2023-07-16T20:51:08;9.93;;;4.90;;
18689;SDS011;9782;52.930;15.562;2023-07-16T20:53:39;5.53;;;3.88;;